Time;durP1;ratioP1;P1;durP2;ratioP2;P2;SDS_P1;SDS_P2;PMS_P1;PMS_P2;Temp;Humidity;BMP_temperature;BMP_pressure;BME280_temperature;BME280_humidity;BME280_pressure;Samples;Min_cycle;Max_cycle;Signal;HPM_P1;HPM_P2
2023/05/09 00:01:44;;;;;;;;;;;;;;;;;;6204368;23;19931;-85
2023/05/09 00:04:10;;;;;;;;;;;;;;;;;;6203065;23;20033;-85
2023/05/09 00:06:36;;;;;;;;;;;;;;;;;;6207895;23;19916;-84
2023/05/09 00:09:03;;;;;;;;;;;;;;;;;;6232613;23;19991;-85
2023/05/09 00:11:30;;;;;;;;;;;;;;;;;;6204852;23;19919;-85
2023/05/09 00:13:56;;;;;;;;;;;;;;;;;;6204894;23;20364;-85
2023/05/09 00:16:28;;;;;;;;;;;;;;;;;;6204394;23;19927;-85
2023/05/09 00:18:54;;;;;;;;;;;;;;;;;;6205822;23;19923;-85
2023/05/09 00:21:21;;;;;;;;;;;;;;;;;;6227884;23;19923;-85
2023/05/09 00:23:47;;;;;;;;;;;;;;;;;;6232683;23;19920;-85
2023/05/09 00:26:13;;;;;;;;;;;;;;;;;;6202199;23;19981;-85
2023/05/09 00:28:42;;;;;;;;;;;;;;;;;;6208195;23;19916;-85
2023/05/09 00:31:08;;;;;;;;;;;;;;;;;;6203995;23;19919;-85
2023/05/09 00:33:34;;;;;;;;;;;;;;;;;;6205202;23;20316;-85
2023/05/09 00:36:02;;;;;;;;;;;;;;;;;;6206282;23;19915;-85
2023/05/09 00:38:28;;;;;;;;;;;;;;;;;;6203997;22;20268;-85
2023/05/09 00:40:54;;;;;;;;;;;;;;;;;;6203766;23;20400;-86
2023/05/09 00:46:35;;;;;;;;;;;;;;;;;;6221509;22;19923;-85
2023/05/09 00:49:01;;;;;;;;;;;;;;;;;;6242521;22;19919;-85
2023/05/09 00:51:33;;;;;;;;;;;;;;;;;;6239193;22;20028;-85
2023/05/09 00:53:59;;;;;;;;;;;;;;;;;;6269940;22;19925;-85
2023/05/09 00:56:25;;;;;;;;;;;;;;;;;;6241038;22;19950;-85
2023/05/09 00:58:51;;;;;;;;;;;;;;;;;;6243523;22;20002;-85
2023/05/09 01:01:17;;;;;;;;;;;;;;;;;;6238069;22;19922;-85
2023/05/09 01:03:46;;;;;;;;;;;;;;;;;;6241373;22;19930;-85
2023/05/09 01:06:23;;;;;;;;;;;;;;;;;;6264628;22;19918;-85
2023/05/09 01:08:50;;;;;;;;;;;;;;;;;;6240146;22;19919;-85
2023/05/09 01:11:16;;;;;;;;;;;;;;;;;;6238312;22;19993;-85
2023/05/09 01:13:45;;;;;;;;;;;;;;;;;;6241787;22;19990;-85
2023/05/09 01:16:11;;;;;;;;;;;;;;;;;;6239089;22;19973;-85
2023/05/09 01:18:37;;;;;;;;;;;;;;;;;;6267616;22;19986;-85
2023/05/09 01:21:03;;;;;;;;;;;;;;;;;;6266909;22;19953;-85
2023/05/09 01:23:29;;;;;;;;;;;;;;;;;;6239904;22;19964;-85
2023/05/09 01:25:55;;;;;;;;;;;;;;;;;;6243423;22;19919;-84
2023/05/09 01:28:21;;;;;;;;;;;;;;;;;;6243033;22;20297;-84
2023/05/09 01:30:49;;;;;;;;;;;;;;;;;;6243892;22;19927;-85
2023/05/09 01:33:18;;;;;;;;;;;;;;;;;;6267440;22;19921;-84
2023/05/09 01:35:44;;;;;;;;;;;;;;;;;;6244369;22;20232;-85
2023/05/09 01:38:11;;;;;;;;;;;;;;;;;;6241665;22;19926;-85
2023/05/09 01:40:37;;;;;;;;;;;;;;;;;;6243782;22;20113;-85
2023/05/09 01:43:03;;;;;;;;;;;;;;;;;;6245248;22;19919;-85
2023/05/09 01:45:29;;;;;;;;;;;;;;;;;;6266188;22;19996;-85
2023/05/09 01:47:55;;;;;;;;;;;;;;;;;;6271596;22;19919;-85
2023/05/09 01:50:21;;;;;;;;;;;;;;;;;;6244586;22;19944;-85
2023/05/09 01:52:48;;;;;;;;;;;;;;;;;;6271712;22;20262;-85
2023/05/09 01:55:13;;;;;;;;;;;;;;;;;;6269441;22;20243;-85
2023/05/09 01:57:40;;;;;;;;;;;;;;;;;;6270836;22;19986;-85
2023/05/09 02:00:06;;;;;;;;;;;;;;;;;;6242829;22;19930;-84
2023/05/09 02:02:32;;;;;;;;;;;;;;;;;;6240785;22;20292;-84
2023/05/09 02:04:58;;;;;;;;;;;;;;;;;;6242560;22;20003;-84
2023/05/09 02:07:25;;;;;;;;;;;;;;;;;;6267412;22;19923;-83
2023/05/09 02:09:52;;;;;;;;;;;;;;;;;;6245095;22;19915;-83
2023/05/09 02:12:18;;;;;;;;;;;;;;;;;;6265206;22;20338;-83
2023/05/09 02:14:44;;;;;;;;;;;;;;;;;;6270304;22;19947;-84
2023/05/09 02:17:15;;;;;;;;;;;;;;;;;;6265253;22;19929;-83
2023/05/09 02:19:41;;;;;;;;;;;;;;;;;;6269325;22;19996;-83
2023/05/09 02:22:07;;;;;;;;;;;;;;;;;;6239095;22;20339;-84
2023/05/09 02:24:33;;;;;;;;;;;;;;;;;;6244872;22;19997;-84
2023/05/09 02:27:00;;;;;;;;;;;;;;;;;;6242810;22;19989;-84
2023/05/09 02:29:26;;;;;;;;;;;;;;;;;;6267111;22;20264;-84
2023/05/09 02:31:52;;;;;;;;;;;;;;;;;;6242551;22;20340;-84
2023/05/09 02:34:18;;;;;;;;;;;;;;;;;;6241319;22;19976;-84
2023/05/09 02:36:44;;;;;;;;;;;;;;;;;;6242831;22;19945;-84
2023/05/09 02:39:10;;;;;;;;;;;;;;;;;;6241230;22;19921;-84
2023/05/09 02:41:36;;;;;;;;;;;;;;;;;;6239298;22;20005;-84
2023/05/09 02:44:02;;;;;;;;;;;;;;;;;;6245192;22;19915;-84
2023/05/09 02:49:46;;;;;;;;;;;;;;;;;;6238687;22;19918;-84
2023/05/09 02:52:12;;;;;;;;;;;;;;;;;;6262399;22;19949;-84
2023/05/09 02:54:38;;;;;;;;;;;;;;;;;;6266153;22;20320;-84
2023/05/09 02:57:04;;;;;;;;;;;;;;;;;;6240584;22;19922;-84
2023/05/09 02:59:30;;;;;;;;;;;;;;;;;;6261834;22;20018;-84
2023/05/09 03:01:55;;;;;;;;;;;;;;;;;;6264412;22;19969;-84
2023/05/09 03:04:22;;;;;;;;;;;;;;;;;;6235183;22;19970;-84
2023/05/09 03:06:48;;;;;;;;;;;;;;;;;;6237197;22;19979;-84
2023/05/09 03:09:14;;;;;;;;;;;;;;;;;;6235214;22;19922;-84
2023/05/09 03:11:40;;;;;;;;;;;;;;;;;;6238775;22;19927;-84
2023/05/09 03:14:07;;;;;;;;;;;;;;;;;;6236807;22;19969;-84
2023/05/09 03:16:33;;;;;;;;;;;;;;;;;;6236836;22;20295;-84
2023/05/09 03:19:15;;;;;;;;;;;;;;;;;;6237957;22;19965;-84
2023/05/09 03:21:42;;;;;;;;;;;;;;;;;;6236006;22;19927;-84
2023/05/09 03:24:08;;;;;;;;;;;;;;;;;;6234727;22;19926;-84
2023/05/09 03:26:36;;;;;;;;;;;;;;;;;;6235510;22;20483;-84
2023/05/09 03:29:02;;;;;;;;;;;;;;;;;;6236734;22;19919;-83
2023/05/09 03:34:21;;;;;;;;;;;;;;;;;;6254144;22;19926;-84
2023/05/09 03:36:47;;;;;;;;;;;;;;;;;;6236985;22;20205;-84
2023/05/09 03:39:16;;;;;;;;;;;;;;;;;;6260173;22;19919;-84
2023/05/09 03:41:48;;;;;;;;;;;;;;;;;;6262631;22;20499;-84
2023/05/09 03:44:14;;;;;;;;;;;;;;;;;;6234907;22;20324;-84
2023/05/09 03:46:46;;;;;;;;;;;;;;;;;;6233233;22;19963;-84
2023/05/09 03:49:19;;;;;;;;;;;;;;;;;;6233867;22;19926;-84
2023/05/09 03:51:46;;;;;;;;;;;;;;;;;;6237558;22;19919;-84
2023/05/09 03:54:28;;;;;;;;;;;;;;;;;;6260399;22;20233;-84
2023/05/09 03:59:55;;;;;;;;;;;;;;;;;;6262591;22;20290;-84
2023/05/09 04:02:21;;;;;;;;;;;;;;;;;;6260254;22;19919;-84
2023/05/09 04:04:48;;;;;;;;;;;;;;;;;;6237749;22;20034;-84
2023/05/09 04:07:14;;;;;;;;;;;;;;;;;;6257820;22;19915;-85
2023/05/09 04:09:41;;;;;;;;;;;;;;;;;;6262725;22;20056;-84
2023/05/09 04:12:07;;;;;;;;;;;;;;;;;;6262471;22;19939;-84
2023/05/09 04:14:33;;;;;;;;;;;;;;;;;;6236029;22;19930;-84
2023/05/09 04:16:59;;;;;;;;;;;;;;;;;;6237646;22;20255;-84
2023/05/09 04:19:25;;;;;;;;;;;;;;;;;;6258182;22;20550;-84
2023/05/09 04:21:51;;;;;;;;;;;;;;;;;;6236293;22;20378;-84
2023/05/09 04:24:17;;;;;;;;;;;;;;;;;;6233713;22;19919;-84
2023/05/09 04:26:43;;;;;;;;;;;;;;;;;;6235583;22;20248;-84
2023/05/09 04:29:10;;;;;;;;;;;;;;;;;;6258655;22;19957;-84
2023/05/09 04:31:41;;;;;;;;;;;;;;;;;;6237019;22;19920;-84
2023/05/09 04:34:07;;;;;;;;;;;;;;;;;;6235103;22;20013;-84
2023/05/09 04:36:33;;;;;;;;;;;;;;;;;;6262820;22;19919;-84
2023/05/09 04:41:46;;;;;;;;;;;;;;;;;;6240221;22;19925;-84
2023/05/09 04:47:14;;;;;;;;;;;;;;;;;;6256552;22;20260;-84
2023/05/09 04:49:40;;;;;;;;;;;;;;;;;;6261704;22;20232;-83
2023/05/09 04:52:06;;;;;;;;;;;;;;;;;;6260287;22;19920;-84
2023/05/09 04:54:32;;;;;;;;;;;;;;;;;;6261883;22;19927;-84
2023/05/09 04:56:58;;;;;;;;;;;;;;;;;;6235348;22;19923;-84
2023/05/09 04:59:24;;;;;;;;;;;;;;;;;;6236507;22;20372;-83
2023/05/09 05:01:50;;;;;;;;;;;;;;;;;;6237247;22;19965;-84
2023/05/09 05:04:16;;;;;;;;;;;;;;;;;;6237177;22;20082;-83
2023/05/09 05:06:42;;;;;;;;;;;;;;;;;;6238322;22;19931;-84
2023/05/09 05:09:23;;;;;;;;;;;;;;;;;;6235431;22;19923;-84
2023/05/09 05:11:50;;;;;;;;;;;;;;;;;;6262514;22;19916;-84
2023/05/09 05:14:16;;;;;;;;;;;;;;;;;;6259661;22;19923;-83
2023/05/09 05:16:42;;;;;;;;;;;;;;;;;;6262864;22;20435;-84
2023/05/09 05:19:08;;;;;;;;;;;;;;;;;;6263024;22;19994;-84
2023/05/09 05:21:43;;;;;;;;;;;;;;;;;;6236784;22;19959;-84
2023/05/09 05:27:20;;;;;;;;;;;;;;;;;;6273924;22;19977;-84
2023/05/09 05:29:46;;;;;;;;;;;;;;;;;;6239771;22;20320;-84
2023/05/09 05:32:12;;;;;;;;;;;;;;;;;;6262365;22;19915;-83
2023/05/09 05:34:38;;;;;;;;;;;;;;;;;;6266140;22;19965;-84
2023/05/09 05:37:04;;;;;;;;;;;;;;;;;;6237659;22;19919;-84
2023/05/09 05:39:30;;;;;;;;;;;;;;;;;;6262224;22;19943;-84
2023/05/09 05:41:56;;;;;;;;;;;;;;;;;;6238394;22;19923;-84
2023/05/09 05:44:22;;;;;;;;;;;;;;;;;;6261784;22;20323;-84
2023/05/09 05:46:48;;;;;;;;;;;;;;;;;;6241440;22;19919;-84
2023/05/09 05:52:02;;;;;;;;;;;;;;;;;;6295608;22;19915;-84
2023/05/09 05:54:28;;;;;;;;;;;;;;;;;;6242574;22;20407;-84
2023/05/09 05:56:55;;;;;;;;;;;;;;;;;;6265991;22;19919;-84
2023/05/09 05:59:21;;;;;;;;;;;;;;;;;;6263596;22;20198;-84
2023/05/09 06:01:46;;;;;;;;;;;;;;;;;;6241491;22;19922;-84
2023/05/09 06:04:12;;;;;;;;;;;;;;;;;;6242992;22;19986;-83
2023/05/09 06:06:38;;;;;;;;;;;;;;;;;;6297619;22;19922;-83
2023/05/09 06:09:05;;;;;;;;;;;;;;;;;;6268406;22;19919;-83
2023/05/09 06:11:33;;;;;;;;;;;;;;;;;;6245344;22;20004;-84
2023/05/09 06:13:59;;;;;;;;;;;;;;;;;;6272042;22;19938;-83
2023/05/09 06:16:25;;;;;;;;;;;;;;;;;;6269708;22;20925;-83
2023/05/09 06:18:51;;;;;;;;;;;;;;;;;;6271369;22;19922;-84
2023/05/09 06:21:17;;;;;;;;;;;;;;;;;;6269027;22;20186;-84
2023/05/09 06:23:43;;;;;;;;;;;;;;;;;;6272842;22;19991;-84
2023/05/09 06:26:11;;;;;;;;;;;;;;;;;;6269221;22;19942;-84
2023/05/09 06:28:42;;;;;;;;;;;;;;;;;;6247100;22;19962;-84
2023/05/09 06:31:08;;;;;;;;;;;;;;;;;;6267262;22;19919;-84
2023/05/09 06:33:37;;;;;;;;;;;;;;;;;;6270570;22;19994;-84
2023/05/09 06:36:03;;;;;;;;;;;;;;;;;;6246886;22;20398;-84
2023/05/09 06:38:29;;;;;;;;;;;;;;;;;;6243799;22;19921;-84
2023/05/09 06:40:55;;;;;;;;;;;;;;;;;;6245392;22;19923;-84
2023/05/09 06:43:24;;;;;;;;;;;;;;;;;;6243490;22;19918;-84
2023/05/09 06:45:50;;;;;;;;;;;;;;;;;;6272141;22;19968;-84
2023/05/09 06:48:16;;;;;;;;;;;;;;;;;;6269013;22;19927;-84
2023/05/09 06:50:42;;;;;;;;;;;;;;;;;;6245642;22;19926;-84
2023/05/09 06:53:08;;;;;;;;;;;;;;;;;;6242652;22;20252;-84
2023/05/09 06:55:34;;;;;;;;;;;;;;;;;;6244875;22;19923;-84
2023/05/09 06:58:00;;;;;;;;;;;;;;;;;;6244546;22;19915;-84
2023/05/09 07:00:26;;;;;;;;;;;;;;;;;;6244036;22;20721;-84
2023/05/09 07:02:52;;;;;;;;;;;;;;;;;;6246229;22;19965;-84
2023/05/09 07:05:18;;;;;;;;;;;;;;;;;;6268744;22;19919;-84
2023/05/09 07:07:44;;;;;;;;;;;;;;;;;;6247022;22;19915;-84
2023/05/09 07:10:10;;;;;;;;;;;;;;;;;;6245138;22;20387;-84
2023/05/09 07:12:36;;;;;;;;;;;;;;;;;;6271074;22;19962;-83
2023/05/09 07:15:02;;;;;;;;;;;;;;;;;;6270777;22;19991;-84
2023/05/09 07:17:29;;;;;;;;;;;;;;;;;;6269010;22;19925;-84
2023/05/09 07:19:55;;;;;;;;;;;;;;;;;;6246941;22;19987;-84
2023/05/09 07:22:21;;;;;;;;;;;;;;;;;;6243112;22;19919;-84
2023/05/09 07:24:47;;;;;;;;;;;;;;;;;;6245463;22;19961;-84
2023/05/09 07:27:15;;;;;;;;;;;;;;;;;;6269125;22;19914;-84
2023/05/09 07:29:41;;;;;;;;;;;;;;;;;;6269923;22;19919;-84
2023/05/09 07:32:07;;;;;;;;;;;;;;;;;;6241089;22;19922;-84
2023/05/09 07:34:33;;;;;;;;;;;;;;;;;;6245504;22;19923;-84
2023/05/09 07:36:59;;;;;;;;;;;;;;;;;;6246640;22;19925;-84
2023/05/09 07:39:25;;;;;;;;;;;;;;;;;;6270149;22;19951;-84
2023/05/09 07:41:51;;;;;;;;;;;;;;;;;;6246157;22;19977;-84
2023/05/09 07:44:17;;;;;;;;;;;;;;;;;;6268328;22;19919;-84
2023/05/09 07:46:43;;;;;;;;;;;;;;;;;;6245184;22;20332;-84
2023/05/09 07:49:09;;;;;;;;;;;;;;;;;;6243452;22;19986;-84
2023/05/09 07:51:35;;;;;;;;;;;;;;;;;;6245958;22;19918;-84
2023/05/09 07:54:01;;;;;;;;;;;;;;;;;;6244988;22;19915;-84
2023/05/09 07:56:27;;;;;;;;;;;;;;;;;;6241856;22;19926;-84
2023/05/09 07:58:53;;;;;;;;;;;;;;;;;;6245797;22;19919;-84
2023/05/09 08:01:19;;;;;;;;;;;;;;;;;;6242142;22;20355;-84
2023/05/09 08:03:45;;;;;;;;;;;;;;;;;;6270682;22;19989;-84
2023/05/09 08:06:11;;;;;;;;;;;;;;;;;;6243384;22;19950;-84
2023/05/09 08:08:37;;;;;;;;;;;;;;;;;;6247602;22;19915;-84
2023/05/09 08:11:03;;;;;;;;;;;;;;;;;;6245020;22;19915;-84
2023/05/09 08:13:32;;;;;;;;;;;;;;;;;;6268305;22;20284;-84
2023/05/09 08:15:58;;;;;;;;;;;;;;;;;;6246373;22;19915;-84
2023/05/09 08:18:24;;;;;;;;;;;;;;;;;;6295780;22;19997;-84
2023/05/09 08:20:50;;;;;;;;;;;;;;;;;;6243394;22;20014;-84
2023/05/09 08:23:16;;;;;;;;;;;;;;;;;;6242923;22;19923;-84
2023/05/09 08:25:42;;;;;;;;;;;;;;;;;;6243345;22;20328;-84
2023/05/09 08:28:08;;;;;;;;;;;;;;;;;;6242989;22;19918;-84
2023/05/09 08:30:34;;;;;;;;;;;;;;;;;;6243709;22;19923;-84
2023/05/09 08:33:00;;;;;;;;;;;;;;;;;;6243702;22;19919;-84
2023/05/09 08:35:26;;;;;;;;;;;;;;;;;;6269060;22;20365;-83
2023/05/09 08:37:51;;;;;;;;;;;;;;;;;;6245601;22;19971;-84
2023/05/09 08:40:18;;;;;;;;;;;;;;;;;;6267721;22;19919;-84
2023/05/09 08:42:44;;;;;;;;;;;;;;;;;;6244696;22;19919;-83
2023/05/09 08:45:10;;;;;;;;;;;;;;;;;;6268789;22;19915;-84
2023/05/09 08:47:36;;;;;;;;;;;;;;;;;;6264701;22;19923;-84
2023/05/09 08:50:03;;;;;;;;;;;;;;;;;;6240764;22;19919;-84
2023/05/09 08:52:29;;;;;;;;;;;;;;;;;;6263024;22;19920;-83
2023/05/09 08:54:55;;;;;;;;;;;;;;;;;;6265404;22;19915;-84
2023/05/09 08:57:21;;;;;;;;;;;;;;;;;;6262296;22;19919;-84
2023/05/09 08:59:47;;;;;;;;;;;;;;;;;;6239793;22;20297;-84
2023/05/09 09:02:13;;;;;;;;;;;;;;;;;;6263608;22;19920;-84
2023/05/09 09:04:39;;;;;;;;;;;;;;;;;;6265888;22;20003;-84
2023/05/09 09:07:06;;;;;;;;;;;;;;;;;;6265098;22;19919;-83
2023/05/09 09:09:32;;;;;;;;;;;;;;;;;;6238167;22;19925;-84
2023/05/09 09:11:58;;;;;;;;;;;;;;;;;;6238650;22;19919;-84
2023/05/09 09:14:24;;;;;;;;;;;;;;;;;;6235870;22;19923;-83
2023/05/09 09:16:50;;;;;;;;;;;;;;;;;;6265437;22;19994;-84
2023/05/09 09:19:16;;;;;;;;;;;;;;;;;;6237688;22;19923;-84
2023/05/09 09:21:42;;;;;;;;;;;;;;;;;;6262957;22;19927;-84
2023/05/09 09:24:08;;;;;;;;;;;;;;;;;;6235138;22;19923;-84
2023/05/09 09:26:41;;;;;;;;;;;;;;;;;;6235650;22;20336;-84
2023/05/09 09:29:13;;;;;;;;;;;;;;;;;;6238021;22;19965;-84
2023/05/09 09:31:39;;;;;;;;;;;;;;;;;;6264759;22;20193;-84
2023/05/09 09:34:05;;;;;;;;;;;;;;;;;;6263693;22;20240;-84
2023/05/09 09:36:31;;;;;;;;;;;;;;;;;;6264488;22;19929;-84
2023/05/09 09:38:59;;;;;;;;;;;;;;;;;;6264242;22;19954;-84
2023/05/09 09:41:25;;;;;;;;;;;;;;;;;;6261335;22;19920;-84
2023/05/09 09:43:51;;;;;;;;;;;;;;;;;;6239645;22;20332;-84
2023/05/09 09:46:18;;;;;;;;;;;;;;;;;;6235633;22;19919;-84
2023/05/09 09:48:49;;;;;;;;;;;;;;;;;;6268474;22;19927;-84
2023/05/09 09:51:17;;;;;;;;;;;;;;;;;;6238465;22;19919;-84
2023/05/09 09:53:43;;;;;;;;;;;;;;;;;;6242628;22;20296;-84
2023/05/09 09:56:20;;;;;;;;;;;;;;;;;;6264246;22;19965;-84
2023/05/09 09:58:46;;;;;;;;;;;;;;;;;;6267474;22;19919;-84
2023/05/09 10:01:15;;;;;;;;;;;;;;;;;;6264042;22;20244;-84
2023/05/09 10:03:41;;;;;;;;;;;;;;;;;;6267240;22;20241;-83
2023/05/09 10:06:07;;;;;;;;;;;;;;;;;;6238611;22;19968;-84
2023/05/09 10:08:33;;;;;;;;;;;;;;;;;;6241324;22;19923;-83
2023/05/09 10:10:59;;;;;;;;;;;;;;;;;;6240545;22;19942;-84
2023/05/09 10:13:25;;;;;;;;;;;;;;;;;;6265166;22;20287;-83
2023/05/09 10:15:51;;;;;;;;;;;;;;;;;;6240850;22;19928;-84
2023/05/09 10:18:18;;;;;;;;;;;;;;;;;;6238602;22;19919;-83
2023/05/09 10:20:44;;;;;;;;;;;;;;;;;;6264999;22;19923;-84
2023/05/09 10:23:10;;;;;;;;;;;;;;;;;;6265160;22;19922;-84
2023/05/09 10:25:37;;;;;;;;;;;;;;;;;;6242310;22;19923;-83
2023/05/09 10:28:03;;;;;;;;;;;;;;;;;;6265696;22;20339;-83
2023/05/09 10:30:29;;;;;;;;;;;;;;;;;;6264736;22;19921;-83
2023/05/09 10:32:55;;;;;;;;;;;;;;;;;;6265341;22;19942;-84
2023/05/09 10:35:21;;;;;;;;;;;;;;;;;;6263015;22;19919;-84
2023/05/09 10:37:47;;;;;;;;;;;;;;;;;;6266803;22;19922;-84
2023/05/09 10:40:14;;;;;;;;;;;;;;;;;;6238862;22;19915;-83
2023/05/09 10:42:40;;;;;;;;;;;;;;;;;;6241099;22;19965;-84
2023/05/09 10:45:06;;;;;;;;;;;;;;;;;;6267901;22;19923;-85
2023/05/09 10:47:32;;;;;;;;;;;;;;;;;;6264259;22;19946;-83
2023/05/09 10:49:58;;;;;;;;;;;;;;;;;;6240630;22;19981;-84
2023/05/09 10:52:24;;;;;;;;;;;;;;;;;;6262099;22;20375;-84
2023/05/09 10:54:50;;;;;;;;;;;;;;;;;;6266948;22;19935;-84
2023/05/09 10:57:16;;;;;;;;;;;;;;;;;;6263066;22;19990;-84
2023/05/09 10:59:42;;;;;;;;;;;;;;;;;;6265768;22;19968;-84
2023/05/09 11:02:08;;;;;;;;;;;;;;;;;;6237638;22;20243;-84
2023/05/09 11:04:34;;;;;;;;;;;;;;;;;;6267676;22;20021;-84
2023/05/09 11:07:00;;;;;;;;;;;;;;;;;;6265576;22;19915;-84
2023/05/09 11:09:31;;;;;;;;;;;;;;;;;;6264176;22;20087;-84
2023/05/09 11:11:57;;;;;;;;;;;;;;;;;;6265544;22;20311;-84
2023/05/09 11:14:23;;;;;;;;;;;;;;;;;;6265273;22;19915;-83
2023/05/09 11:16:49;;;;;;;;;;;;;;;;;;6239931;22;19993;-84
2023/05/09 11:19:15;;;;;;;;;;;;;;;;;;6237395;22;20295;-84
2023/05/09 11:21:41;;;;;;;;;;;;;;;;;;6264792;22;19965;-84
2023/05/09 11:24:07;;;;;;;;;;;;;;;;;;6236095;22;19955;-84
2023/05/09 11:26:33;;;;;;;;;;;;;;;;;;6263899;22;19946;-84
2023/05/09 11:29:01;;;;;;;;;;;;;;;;;;6239232;22;19915;-83
2023/05/09 11:31:27;;;;;;;;;;;;;;;;;;6262698;22;19965;-84
2023/05/09 11:33:57;;;;;;;;;;;;;;;;;;6239949;22;19919;-84
2023/05/09 11:36:28;;;;;;;;;;;;;;;;;;6265005;22;19948;-84
2023/05/09 11:38:54;;;;;;;;;;;;;;;;;;6238210;22;19920;-84
2023/05/09 11:41:20;;;;;;;;;;;;;;;;;;6264503;22;19920;-84
2023/05/09 11:43:46;;;;;;;;;;;;;;;;;;6265024;22;19919;-84
2023/05/09 11:46:12;;;;;;;;;;;;;;;;;;6237116;22;19925;-84
2023/05/09 11:48:38;;;;;;;;;;;;;;;;;;6238594;22;19919;-84
2023/05/09 11:51:04;;;;;;;;;;;;;;;;;;6266929;22;20387;-84
2023/05/09 11:56:21;;;;;;;;;;;;;;;;;;6245881;22;20324;-84
2023/05/09 11:58:47;;;;;;;;;;;;;;;;;;6238571;22;19994;-84
2023/05/09 12:01:13;;;;;;;;;;;;;;;;;;6235688;22;20004;-84
2023/05/09 12:03:40;;;;;;;;;;;;;;;;;;6264875;22;19915;-83
2023/05/09 12:06:06;;;;;;;;;;;;;;;;;;6264433;22;19989;-84
2023/05/09 12:08:32;;;;;;;;;;;;;;;;;;6240437;22;20293;-84
2023/05/09 12:10:57;;;;;;;;;;;;;;;;;;6265172;22;19922;-84
2023/05/09 12:13:23;;;;;;;;;;;;;;;;;;6236903;22;19938;-84
2023/05/09 12:15:49;;;;;;;;;;;;;;;;;;6263621;22;19986;-84
2023/05/09 12:18:17;;;;;;;;;;;;;;;;;;6262459;22;19923;-84
2023/05/09 12:20:43;;;;;;;;;;;;;;;;;;6265705;22;19920;-84
2023/05/09 12:23:09;;;;;;;;;;;;;;;;;;6238872;22;20037;-84
2023/05/09 12:25:35;;;;;;;;;;;;;;;;;;6240200;22;19998;-84
2023/05/09 12:28:01;;;;;;;;;;;;;;;;;;6240103;22;19982;-84
2023/05/09 12:30:27;;;;;;;;;;;;;;;;;;6261531;22;19925;-84
2023/05/09 12:32:53;;;;;;;;;;;;;;;;;;6236829;22;19919;-84
2023/05/09 12:35:38;;;;;;;;;;;;;;;;;;6260281;22;19919;-84
2023/05/09 12:38:10;;;;;;;;;;;;;;;;;;6237981;22;19990;-83
2023/05/09 12:40:43;;;;;;;;;;;;;;;;;;6239599;22;19944;-84
2023/05/09 12:43:09;;;;;;;;;;;;;;;;;;6233286;22;19927;-84
2023/05/09 12:45:35;;;;;;;;;;;;;;;;;;6235683;22;20337;-84
2023/05/09 12:48:01;;;;;;;;;;;;;;;;;;6261400;22;20199;-84
2023/05/09 12:50:27;;;;;;;;;;;;;;;;;;6258151;22;19920;-84
2023/05/09 12:52:53;;;;;;;;;;;;;;;;;;6263756;22;20325;-84
2023/05/09 12:55:20;;;;;;;;;;;;;;;;;;6236100;22;19915;-84
2023/05/09 12:57:46;;;;;;;;;;;;;;;;;;6236754;22;19950;-84
2023/05/09 13:00:12;;;;;;;;;;;;;;;;;;6261306;22;20332;-84
2023/05/09 13:02:40;;;;;;;;;;;;;;;;;;6260784;22;19920;-84
2023/05/09 13:05:09;;;;;;;;;;;;;;;;;;6262916;22;19919;-84
2023/05/09 13:07:35;;;;;;;;;;;;;;;;;;6264129;22;20418;-84
2023/05/09 13:10:02;;;;;;;;;;;;;;;;;;6235916;22;19929;-84
2023/05/09 13:12:30;;;;;;;;;;;;;;;;;;6259140;22;19919;-84
2023/05/09 13:14:56;;;;;;;;;;;;;;;;;;6238294;22;20300;-84
2023/05/09 13:17:22;;;;;;;;;;;;;;;;;;6233157;22;19963;-84
2023/05/09 13:19:48;;;;;;;;;;;;;;;;;;6239602;22;20316;-84
2023/05/09 13:22:16;;;;;;;;;;;;;;;;;;6263078;22;20029;-84
2023/05/09 13:24:42;;;;;;;;;;;;;;;;;;6240345;22;19987;-84
2023/05/09 13:27:09;;;;;;;;;;;;;;;;;;6265048;22;20181;-84
2023/05/09 13:29:35;;;;;;;;;;;;;;;;;;6239709;22;19915;-84
2023/05/09 13:32:02;;;;;;;;;;;;;;;;;;6268402;22;20011;-84
2023/05/09 13:34:28;;;;;;;;;;;;;;;;;;6264720;22;19922;-84
2023/05/09 13:36:54;;;;;;;;;;;;;;;;;;6267332;22;19919;-84
2023/05/09 13:39:20;;;;;;;;;;;;;;;;;;6238623;22;20355;-84
2023/05/09 13:45:22;;;;;;;;;;;;;;;;;;;;;
2023/05/09 13:50:52;;;;;;;;;;;;;;;;;;6245376;22;19970;-85
2023/05/09 13:53:21;;;;;;;;;;;;;;;;;;6239782;22;19925;-85
2023/05/09 13:55:50;;;;;;;;;;;;;;;;;;6239283;22;19919;-85
2023/05/09 13:58:16;;;;;;;;;;;;;;;;;;6238077;22;19972;-85
2023/05/09 14:00:45;;;;;;;;;;;;;;;;;;6240218;22;19922;-85
2023/05/09 14:03:11;;;;;;;;;;;;;;;;;;6264170;22;19926;-85
2023/05/09 14:05:37;;;;;;;;;;;;;;;;;;6265367;22;19927;-85
2023/05/09 14:08:06;;;;;;;;;;;;;;;;;;6259541;22;20252;-85
2023/05/09 14:10:32;;;;;;;;;;;;;;;;;;6231931;22;20376;-85
2023/05/09 14:12:59;;;;;;;;;;;;;;;;;;6236227;22;19955;-85
2023/05/09 14:15:28;;;;;;;;;;;;;;;;;;6260424;22;19943;-85
2023/05/09 14:17:53;;;;;;;;;;;;;;;;;;6237768;22;19942;-85
2023/05/09 14:20:20;;;;;;;;;;;;;;;;;;6234419;22;19985;-85
2023/05/09 14:22:47;;;;;;;;;;;;;;;;;;6236585;22;20352;-85
2023/05/09 14:25:13;;;;;;;;;;;;;;;;;;6260236;22;20049;-85
2023/05/09 14:27:41;;;;;;;;;;;;;;;;;;6237040;22;19927;-85
2023/05/09 14:30:09;;;;;;;;;;;;;;;;;;6262939;22;19919;-84
2023/05/09 14:32:35;;;;;;;;;;;;;;;;;;6262542;22;20354;-85
2023/05/09 14:35:01;;;;;;;;;;;;;;;;;;6239838;22;19990;-85
2023/05/09 14:37:28;;;;;;;;;;;;;;;;;;6232725;22;19954;-85
2023/05/09 14:39:54;;;;;;;;;;;;;;;;;;6233654;22;19948;-85
2023/05/09 14:42:20;;;;;;;;;;;;;;;;;;6236883;22;19926;-85
2023/05/09 14:44:47;;;;;;;;;;;;;;;;;;6239712;22;19924;-85
2023/05/09 14:47:16;;;;;;;;;;;;;;;;;;6260684;22;20328;-85
2023/05/09 14:49:42;;;;;;;;;;;;;;;;;;6216360;22;19951;-90
2023/05/09 14:52:09;;;;;;;;;;;;;;;;;;6197842;22;20345;-92
2023/05/09 14:54:35;;;;;;;;;;;;;;;;;;6227839;22;20589;-93
2023/05/09 14:57:03;;;;;;;;;;;;;;;;;;6212834;22;20399;-92
2023/05/09 14:59:29;;;;;;;;;;;;;;;;;;6206002;22;19919;-92
2023/05/09 15:01:55;;;;;;;;;;;;;;;;;;6235758;22;19919;-92
2023/05/09 15:04:21;;;;;;;;;;;;;;;;;;6209629;22;19957;-92
2023/05/09 15:06:47;;;;;;;;;;;;;;;;;;6238491;22;19919;-93
2023/05/09 15:09:14;;;;;;;;;;;;;;;;;;6212177;22;20406;-93
2023/05/09 15:11:41;;;;;;;;;;;;;;;;;;6210096;22;19990;-92
2023/05/09 15:14:08;;;;;;;;;;;;;;;;;;6210230;22;19915;-94
2023/05/09 15:16:34;;;;;;;;;;;;;;;;;;6211252;22;19959;-92
2023/05/09 15:19:00;;;;;;;;;;;;;;;;;;6211834;22;19934;-92
2023/05/09 15:21:27;;;;;;;;;;;;;;;;;;6234449;22;19997;-93
2023/05/09 15:23:53;;;;;;;;;;;;;;;;;;6213090;22;19919;-92
2023/05/09 15:26:19;;;;;;;;;;;;;;;;;;6233420;22;19919;-93
2023/05/09 15:28:45;;;;;;;;;;;;;;;;;;6212837;22;19919;-93
2023/05/09 15:31:13;;;;;;;;;;;;;;;;;;6238118;22;19959;-93
2023/05/09 15:33:39;;;;;;;;;;;;;;;;;;6236704;22;19993;-93
2023/05/09 15:36:05;;;;;;;;;;;;;;;;;;6212865;22;19988;-93
2023/05/09 15:38:31;;;;;;;;;;;;;;;;;;6208260;22;19920;-93
2023/05/09 15:41:05;;;;;;;;;;;;;;;;;;6210720;22;19919;-93
2023/05/09 15:43:33;;;;;;;;;;;;;;;;;;6233600;22;20315;-93
2023/05/09 15:45:59;;;;;;;;;;;;;;;;;;6206519;22;20382;-93
2023/05/09 15:48:26;;;;;;;;;;;;;;;;;;6206932;22;19919;-93
2023/05/09 15:50:52;;;;;;;;;;;;;;;;;;6237272;22;20331;-92
2023/05/09 15:53:18;;;;;;;;;;;;;;;;;;6209112;22;19941;-92
2023/05/09 15:55:44;;;;;;;;;;;;;;;;;;6235547;22;19919;-92
2023/05/09 15:58:10;;;;;;;;;;;;;;;;;;6210961;22;19919;-93
2023/05/09 16:00:36;;;;;;;;;;;;;;;;;;6236802;22;19922;-93
2023/05/09 16:03:02;;;;;;;;;;;;;;;;;;6234930;22;19986;-93
2023/05/09 16:05:28;;;;;;;;;;;;;;;;;;6211506;22;19954;-93
2023/05/09 16:07:57;;;;;;;;;;;;;;;;;;6241545;22;19919;-93
2023/05/09 16:10:23;;;;;;;;;;;;;;;;;;6211273;22;19926;-92
2023/05/09 16:12:49;;;;;;;;;;;;;;;;;;6214898;22;19919;-93
2023/05/09 16:15:14;;;;;;;;;;;;;;;;;;6214191;22;20297;-93
2023/05/09 16:17:41;;;;;;;;;;;;;;;;;;6234384;22;19954;-92
2023/05/09 16:20:07;;;;;;;;;;;;;;;;;;6238861;22;19915;-93
2023/05/09 16:22:33;;;;;;;;;;;;;;;;;;6211139;22;19927;-93
2023/05/09 16:24:58;;;;;;;;;;;;;;;;;;6215329;22;20336;-93
2023/05/09 16:27:24;;;;;;;;;;;;;;;;;;6235036;22;19926;-92
2023/05/09 16:29:51;;;;;;;;;;;;;;;;;;6239145;22;19982;-92
2023/05/09 16:32:20;;;;;;;;;;;;;;;;;;6212576;22;19926;-93
2023/05/09 16:34:46;;;;;;;;;;;;;;;;;;6236278;22;20296;-92
2023/05/09 16:37:12;;;;;;;;;;;;;;;;;;6238072;22;20266;-92
2023/05/09 16:39:38;;;;;;;;;;;;;;;;;;6209990;22;19950;-93
2023/05/09 16:42:04;;;;;;;;;;;;;;;;;;6211957;22;19966;-92
2023/05/09 16:44:30;;;;;;;;;;;;;;;;;;6235876;22;19922;-93
2023/05/09 16:46:56;;;;;;;;;;;;;;;;;;6235916;22;20398;-92
2023/05/09 16:49:22;;;;;;;;;;;;;;;;;;6204410;22;19919;-92
2023/05/09 16:51:50;;;;;;;;;;;;;;;;;;6237314;22;19923;-93
2023/05/09 16:54:16;;;;;;;;;;;;;;;;;;6238604;22;19919;-92
2023/05/09 16:56:42;;;;;;;;;;;;;;;;;;6216697;22;19915;-92
2023/05/09 16:59:08;;;;;;;;;;;;;;;;;;6240285;22;20354;-92
2023/05/09 17:01:37;;;;;;;;;;;;;;;;;;6212446;22;20250;-92
2023/05/09 17:04:05;;;;;;;;;;;;;;;;;;6215585;22;19938;-93
2023/05/09 17:06:32;;;;;;;;;;;;;;;;;;6212934;22;19990;-93
2023/05/09 17:08:58;;;;;;;;;;;;;;;;;;6215319;22;19951;-93
2023/05/09 17:11:25;;;;;;;;;;;;;;;;;;6243061;22;19922;-92
2023/05/09 17:13:51;;;;;;;;;;;;;;;;;;6244333;22;19926;-93
2023/05/09 17:16:17;;;;;;;;;;;;;;;;;;6217895;22;19939;-93